Time;durP1;ratioP1;P1;durP2;ratioP2;P2;SDS_P1;SDS_P2;PMS_P1;PMS_P2;Temp;Humidity;BMP_temperature;BMP_pressure;BME280_temperature;BME280_humidity;BME280_pressure;Samples;Min_cycle;Max_cycle;Signal;HPM_P1;HPM_P2
2021/12/17 00:04:37;;;;;;;26.35;9.10;;;8.50;99.90;;;;;;4991268;28;20049;-68
2021/12/17 00:07:13;;;;;;;29.05;9.10;;;8.60;99.90;;;;;;5035421;28;20040;-68
2021/12/17 00:09:40;;;;;;;25.55;10.10;;;8.50;99.90;;;;;;5039972;28;20040;-68
2021/12/17 00:12:10;;;;;;;32.00;9.32;;;8.50;99.90;;;;;;5044584;28;20112;-68
2021/12/17 00:14:40;;;;;;;28.55;9.77;;;8.50;99.90;;;;;;5028362;28;20044;-68
2021/12/17 00:17:12;;;;;;;26.88;10.57;;;8.60;99.90;;;;;;5024511;28;20047;-68
2021/12/17 00:20:03;;;;;;;23.25;8.18;;;8.60;99.90;;;;;;5026634;28;20095;-68
2021/12/17 00:49:58;;;;;;;25.10;8.65;;;8.50;99.90;;;;;;5039240;28;20075;-68
2021/12/17 00:52:26;;;;;;;24.65;8.27;;;8.50;99.90;;;;;;5027461;28;20049;-68
2021/12/17 00:54:52;;;;;;;24.80;9.77;;;8.50;99.90;;;;;;5045518;28;20044;-68
2021/12/17 00:57:23;;;;;;;27.87;8.90;;;8.50;99.90;;;;;;5044466;28;20424;-68
2021/12/17 00:59:51;;;;;;;24.67;9.50;;;8.50;99.90;;;;;;5025439;28;20044;-68
2021/12/17 01:02:21;;;;;;;24.52;9.40;;;8.50;99.90;;;;;;5019143;28;20816;-68
2021/12/17 01:04:51;;;;;;;26.58;9.25;;;8.50;99.90;;;;;;5042628;28;20487;-68
2021/12/17 01:07:20;;;;;;;25.02;9.10;;;8.50;99.90;;;;;;5025422;28;20045;-68
2021/12/17 01:09:46;;;;;;;27.75;9.02;;;8.50;99.90;;;;;;5027484;28;20056;-68
2021/12/17 01:12:12;;;;;;;21.25;8.73;;;8.50;99.90;;;;;;5043157;28;20033;-68
2021/12/17 01:14:40;;;;;;;24.02;8.70;;;8.50;99.90;;;;;;5025540;28;20513;-68
2021/12/17 01:17:07;;;;;;;21.05;10.00;;;8.50;99.90;;;;;;5042812;28;24713;-69
2021/12/17 01:20:09;;;;;;;22.73;8.65;;;8.50;99.90;;;;;;5044027;28;20550;-68
2021/12/17 01:25:00;;;;;;;20.35;8.82;;;8.50;99.90;;;;;;5042716;28;20403;-68
2021/12/17 01:35:41;;;;;;;21.13;8.50;;;8.50;99.90;;;;;;5043829;28;20045;-68
2021/12/17 01:41:12;;;;;;;22.35;8.20;;;8.40;99.90;;;;;;5043470;28;20060;-68
2021/12/17 01:43:41;;;;;;;19.58;8.63;;;8.40;99.90;;;;;;5038268;28;20224;-68
2021/12/17 01:46:08;;;;;;;18.77;8.32;;;8.40;99.90;;;;;;5046700;28;20120;-68
2021/12/17 01:48:56;;;;;;;21.02;8.20;;;8.40;99.90;;;;;;5039359;28;20051;-68
2021/12/17 01:57:00;;;;;;;20.60;9.02;;;8.40;99.90;;;;;;5038209;28;20049;-68
2021/12/17 01:59:38;;;;;;;19.15;8.13;;;8.40;99.90;;;;;;5043555;28;20041;-69
2021/12/17 02:02:07;;;;;;;17.00;7.78;;;8.40;99.90;;;;;;5032949;28;20060;-68
2021/12/17 02:04:34;;;;;;;19.65;8.40;;;8.40;99.90;;;;;;5039421;28;20037;-68
2021/12/17 02:07:01;;;;;;;22.65;8.50;;;8.40;99.90;;;;;;5044865;28;20036;-68
2021/12/17 02:29:19;;;;;;;15.40;7.07;;;8.50;99.90;;;;;;5024085;28;20077;-68
2021/12/17 02:31:45;;;;;;;19.92;7.63;;;8.50;99.90;;;;;;5020516;28;20045;-69
2021/12/17 02:36:57;;;;;;;14.80;7.47;;;8.50;99.90;;;;;;5026006;28;20489;-68
2021/12/17 02:47:19;;;;;;;13.93;6.85;;;8.50;99.90;;;;;;5030855;28;20048;-69
2021/12/17 02:49:46;;;;;;;14.20;7.20;;;8.50;99.90;;;;;;5018894;28;20033;-68
2021/12/17 02:52:13;;;;;;;13.07;7.15;;;8.50;99.90;;;;;;5041931;28;20617;-68
2021/12/17 02:54:39;;;;;;;12.07;6.07;;;8.50;99.90;;;;;;5039150;28;20037;-68
2021/12/17 02:57:06;;;;;;;15.68;6.63;;;8.50;99.90;;;;;;5039165;22;20057;-66
2021/12/17 02:59:34;;;;;;;16.05;7.32;;;8.50;99.90;;;;;;5061531;28;20119;-67
2021/12/17 03:02:02;;;;;;;14.95;7.03;;;8.50;99.90;;;;;;5056021;28;20064;-67
2021/12/17 03:04:30;;;;;;;14.90;6.47;;;8.50;99.90;;;;;;5046595;28;20033;-67
2021/12/17 03:06:57;;;;;;;13.95;6.90;;;8.50;99.90;;;;;;5018712;28;20049;-67
2021/12/17 03:09:36;;;;;;;14.75;7.18;;;8.50;99.90;;;;;;5007784;28;20036;-67
2021/12/17 03:12:09;;;;;;;17.20;8.07;;;8.50;99.90;;;;;;5019337;28;20044;-66
2021/12/17 03:14:42;;;;;;;16.63;7.47;;;8.50;99.90;;;;;;5021280;28;20084;-67
2021/12/17 03:17:12;;;;;;;17.35;7.30;;;8.60;99.90;;;;;;5022657;28;20045;-67
2021/12/17 03:25:06;;;;;;;21.75;8.13;;;8.50;99.90;;;;;;5028303;28;20037;-67
2021/12/17 03:27:31;;;;;;;17.55;7.03;;;8.50;99.90;;;;;;5039947;28;20041;-67
2021/12/17 03:29:57;;;;;;;18.50;8.73;;;8.50;99.90;;;;;;5043981;28;20029;-67
2021/12/17 03:32:23;;;;;;;17.50;8.07;;;8.50;99.90;;;;;;5020781;28;20448;-67
2021/12/17 03:34:50;;;;;;;16.77;7.37;;;8.50;99.90;;;;;;5034039;28;20385;-67
2021/12/17 03:37:16;;;;;;;20.70;9.07;;;8.50;99.90;;;;;;5022070;28;20044;-67
2021/12/17 03:39:42;;;;;;;21.75;8.63;;;8.50;99.90;;;;;;5042376;28;20045;-67
2021/12/17 03:42:09;;;;;;;19.10;8.43;;;8.50;99.90;;;;;;5039758;28;20068;-67
2021/12/17 03:44:35;;;;;;;20.98;10.05;;;8.50;99.90;;;;;;5037263;28;20025;-67
2021/12/17 03:47:03;;;;;;;21.83;9.10;;;8.50;99.90;;;;;;5025976;28;20055;-67
2021/12/17 03:49:28;;;;;;;19.88;9.30;;;8.50;99.90;;;;;;5016709;28;20036;-67
2021/12/17 03:52:06;;;;;;;17.30;7.83;;;8.50;99.90;;;;;;5038708;28;20021;-67
2021/12/17 03:54:34;;;;;;;21.02;9.27;;;8.50;99.90;;;;;;5040815;28;20493;-68
2021/12/17 03:57:00;;;;;;;22.73;9.35;;;8.50;99.90;;;;;;5043420;28;20183;-67
2021/12/17 03:59:26;;;;;;;26.77;10.00;;;8.50;99.90;;;;;;5034102;28;20040;-67
2021/12/17 04:01:52;;;;;;;20.03;7.80;;;8.50;99.90;;;;;;5039730;28;20466;-67
2021/12/17 04:04:18;;;;;;;20.80;9.00;;;8.50;99.90;;;;;;5028971;28;20393;-67
2021/12/17 04:06:43;;;;;;;21.10;9.65;;;8.50;99.90;;;;;;5036665;28;20037;-66
2021/12/17 04:09:09;;;;;;;21.07;8.13;;;8.50;99.90;;;;;;5027954;28;20044;-67
2021/12/17 04:11:35;;;;;;;22.43;9.93;;;8.50;99.90;;;;;;5045839;28;20029;-67
2021/12/17 04:14:01;;;;;;;22.20;9.82;;;8.50;99.90;;;;;;5021702;28;20048;-66
2021/12/17 04:16:32;;;;;;;18.87;8.97;;;8.50;99.90;;;;;;5040850;28;20059;-67
2021/12/17 04:18:59;;;;;;;19.58;8.88;;;8.50;99.90;;;;;;5029032;28;20509;-67
2021/12/17 04:21:25;;;;;;;18.83;8.68;;;8.50;99.90;;;;;;5032871;28;20048;-67
2021/12/17 04:23:55;;;;;;;21.52;8.77;;;8.40;99.90;;;;;;5041578;28;20056;-67
2021/12/17 04:26:22;;;;;;;16.98;9.15;;;8.50;99.90;;;;;;5020602;28;21449;-75
2021/12/17 04:28:51;;;;;;;21.98;8.80;;;8.50;99.90;;;;;;5025216;28;20057;-67
2021/12/17 04:31:19;;;;;;;21.08;8.85;;;8.50;99.90;;;;;;5026003;28;20115;-67
2021/12/17 04:33:44;;;;;;;15.30;7.75;;;8.40;99.90;;;;;;5042622;28;20040;-67
2021/12/17 04:36:15;;;;;;;21.30;8.30;;;8.50;99.90;;;;;;5029869;28;20503;-67
2021/12/17 04:38:41;;;;;;;19.20;7.55;;;8.50;99.90;;;;;;5027414;28;20044;-67
2021/12/17 04:44:03;;;;;;;17.50;7.60;;;8.40;99.90;;;;;;5029300;28;20044;-67
2021/12/17 04:59:45;;;;;;;19.58;7.97;;;8.40;99.90;;;;;;5029172;28;20325;-72
2021/12/17 05:02:15;;;;;;;16.20;8.00;;;8.40;99.90;;;;;;5025782;28;20127;-67
2021/12/17 05:04:42;;;;;;;27.55;8.70;;;8.40;99.90;;;;;;5047275;28;20045;-67
2021/12/17 05:07:10;;;;;;;21.05;8.90;;;8.40;99.90;;;;;;5031102;28;20123;-67
2021/12/17 05:09:46;;;;;;;23.13;9.95;;;8.40;99.90;;;;;;5027565;28;20102;-67
2021/12/17 05:20:28;;;;;;;23.38;8.38;;;8.40;99.90;;;;;;5044007;28;20045;-67
2021/12/17 05:22:58;;;;;;;24.30;9.27;;;8.40;99.90;;;;;;5037514;28;20037;-67
2021/12/17 05:25:26;;;;;;;17.10;8.52;;;8.40;99.90;;;;;;5025553;28;20041;-67
2021/12/17 05:27:59;;;;;;;17.40;8.68;;;8.40;99.90;;;;;;5039623;28;20414;-67
2021/12/17 05:30:26;;;;;;;21.70;8.75;;;8.40;99.90;;;;;;5022456;28;20069;-67
2021/12/17 05:32:51;;;;;;;19.20;8.38;;;8.40;99.90;;;;;;5032577;28;20047;-67
2021/12/17 05:35:17;;;;;;;17.67;8.30;;;8.40;99.90;;;;;;5024778;28;20469;-68
2021/12/17 05:37:42;;;;;;;18.87;8.73;;;8.40;99.90;;;;;;5026417;28;20213;-67
2021/12/17 05:40:09;;;;;;;17.13;7.43;;;8.40;99.90;;;;;;5024187;28;20066;-67
2021/12/17 05:42:34;;;;;;;18.70;8.13;;;8.40;99.90;;;;;;5040199;28;20110;-67
2021/12/17 05:45:08;;;;;;;15.83;7.17;;;8.40;99.90;;;;;;5041535;28;20486;-67
2021/12/17 05:47:33;;;;;;;15.63;8.32;;;8.40;99.90;;;;;;5040927;28;20485;-67
2021/12/17 05:49:59;;;;;;;17.90;7.97;;;8.40;99.90;;;;;;5021394;28;20094;-67
2021/12/17 05:52:24;;;;;;;21.50;8.00;;;8.40;99.90;;;;;;5025479;28;20073;-67
2021/12/17 05:54:50;;;;;;;19.53;7.77;;;8.40;99.90;;;;;;5044144;28;20513;-67
2021/12/17 05:57:16;;;;;;;17.67;7.93;;;8.40;99.90;;;;;;5028056;28;20498;-67
2021/12/17 05:59:41;;;;;;;18.00;8.03;;;8.40;99.90;;;;;;5021702;28;20045;-67
2021/12/17 06:02:11;;;;;;;20.00;8.43;;;8.40;99.90;;;;;;5009305;28;20477;-67
2021/12/17 06:04:37;;;;;;;26.00;8.82;;;8.40;99.90;;;;;;5042460;28;20550;-67
2021/12/17 06:07:05;;;;;;;20.85;8.63;;;8.40;99.90;;;;;;5020791;28;20124;-67
2021/12/17 06:09:31;;;;;;;17.60;8.88;;;8.40;99.90;;;;;;5021283;28;20033;-67
2021/12/17 06:11:57;;;;;;;16.23;7.85;;;8.30;99.90;;;;;;5012385;28;20461;-67
2021/12/17 06:14:22;;;;;;;22.93;8.33;;;8.40;99.90;;;;;;5042441;28;20037;-67
2021/12/17 06:16:48;;;;;;;13.77;6.83;;;8.30;99.90;;;;;;5041670;28;20531;-67
2021/12/17 06:19:17;;;;;;;20.10;8.50;;;8.30;99.90;;;;;;5031098;28;20041;-67
2021/12/17 06:21:43;;;;;;;18.17;7.63;;;8.30;99.90;;;;;;5040417;28;20538;-67
2021/12/17 06:24:09;;;;;;;19.77;9.23;;;8.30;99.90;;;;;;5035286;28;20124;-67
2021/12/17 06:26:35;;;;;;;17.67;8.77;;;8.30;99.90;;;;;;5025585;28;20043;-67
2021/12/17 06:29:00;;;;;;;17.17;7.83;;;8.30;99.90;;;;;;5028297;28;20478;-67
2021/12/17 06:31:27;;;;;;;19.20;8.53;;;8.30;99.90;;;;;;5001001;28;20052;-67
2021/12/17 06:33:52;;;;;;;;;;;8.30;99.90;;;;;;5023365;28;20056;-67
2021/12/17 06:36:18;;;;;;;20.10;7.82;;;8.30;99.90;;;;;;5029963;28;19920;-67
2021/12/17 06:38:44;;;;;;;17.90;8.33;;;8.30;99.90;;;;;;5040818;28;20033;-67
2021/12/17 06:41:10;;;;;;;16.13;7.73;;;8.30;99.90;;;;;;5025391;28;20033;-67
2021/12/17 06:43:39;;;;;;;18.67;8.40;;;8.30;99.90;;;;;;5021189;28;20358;-67
2021/12/17 06:46:17;;;;;;;18.25;8.23;;;8.30;99.90;;;;;;5039365;28;20030;-67
2021/12/17 06:48:46;;;;;;;18.80;7.13;;;8.30;99.90;;;;;;5039212;28;20056;-67
2021/12/17 06:59:41;;;;;;;17.57;7.57;;;8.30;99.90;;;;;;5027925;28;20055;-69
2021/12/17 07:10:37;;;;;;;15.65;7.28;;;8.30;99.90;;;;;;5039840;28;20076;-67
2021/12/17 07:31:19;;;;;;;19.13;7.03;;;8.30;99.90;;;;;;5022758;28;20041;-68
2021/12/17 07:40:08;;;;;;;17.08;7.47;;;8.20;99.90;;;;;;5024407;28;20056;-68
2021/12/17 07:42:34;;;;;;;13.52;7.28;;;8.30;99.90;;;;;;5048285;28;20457;-68
2021/12/17 07:45:00;;;;;;;16.52;7.30;;;8.30;99.90;;;;;;5045970;28;20038;-68
2021/12/17 07:47:27;;;;;;;16.98;7.07;;;8.30;99.90;;;;;;5028252;28;20045;-68
2021/12/17 07:49:53;;;;;;;;;;;8.30;99.90;;;;;;5029448;28;20359;-67
2021/12/17 07:52:19;;;;;;;15.82;6.47;;;8.30;99.90;;;;;;5041876;28;20152;-68
2021/12/17 07:54:45;;;;;;;12.15;6.07;;;8.30;99.90;;;;;;5043607;28;20184;-68
2021/12/17 07:57:11;;;;;;;12.50;6.33;;;8.30;99.90;;;;;;5014661;28;20196;-68
2021/12/17 07:59:37;;;;;;;15.13;6.45;;;8.30;99.90;;;;;;5028538;28;20391;-68
2021/12/17 08:02:03;;;;;;;17.15;7.53;;;8.30;99.90;;;;;;5023962;28;20041;-67
2021/12/17 08:04:28;;;;;;;19.67;7.07;;;8.30;99.90;;;;;;5019897;28;20032;-67
2021/12/17 08:06:54;;;;;;;15.53;7.63;;;8.30;99.90;;;;;;5033920;28;20477;-67
2021/12/17 08:09:20;;;;;;;19.27;7.37;;;8.30;99.90;;;;;;5029309;28;20053;-68
2021/12/17 08:11:53;;;;;;;19.38;8.80;;;8.40;99.90;;;;;;5029437;28;20049;-67
2021/12/17 08:14:19;;;;;;;19.42;7.40;;;8.30;99.90;;;;;;5029642;28;20489;-68
2021/12/17 08:17:17;;;;;;;20.43;7.20;;;8.40;99.90;;;;;;5031879;28;20102;-68
2021/12/17 08:25:11;;;;;;;16.38;6.53;;;8.40;99.90;;;;;;5048759;28;20120;-67
2021/12/17 08:32:39;;;;;;;20.23;7.28;;;8.40;99.90;;;;;;5019977;28;20064;-68
2021/12/17 08:35:05;;;;;;;18.13;6.87;;;8.40;99.90;;;;;;5046581;28;20477;-67
2021/12/17 08:37:32;;;;;;;;;;;8.40;99.90;;;;;;5024985;28;20067;-67
2021/12/17 08:39:57;;;;;;;16.33;6.47;;;8.50;99.90;;;;;;5032672;28;19940;-67
2021/12/17 08:42:23;;;;;;;17.23;6.97;;;8.40;99.90;;;;;;5030365;28;20040;-67
2021/12/17 08:44:49;;;;;;;14.60;7.35;;;8.50;99.90;;;;;;5040020;28;20044;-67
2021/12/17 08:47:14;;;;;;;16.93;6.93;;;8.50;99.90;;;;;;5033001;28;20044;-68
2021/12/17 08:49:41;;;;;;;18.87;6.87;;;8.50;99.90;;;;;;5041632;28;20116;-68
2021/12/17 08:52:08;;;;;;;11.70;5.45;;;8.50;99.90;;;;;;5045303;28;20041;-68
2021/12/17 08:54:34;;;;;;;17.60;6.65;;;8.50;99.90;;;;;;5044771;28;20029;-68
2021/12/17 08:59:29;;;;;;;14.07;6.68;;;8.50;99.90;;;;;;5045539;28;20053;-70
2021/12/17 09:01:56;;;;;;;20.57;7.40;;;8.50;99.90;;;;;;5029822;28;20052;-71
2021/12/17 09:04:22;;;;;;;;;;;8.60;99.90;;;;;;5039910;28;20041;-71
2021/12/17 09:06:48;;;;;;;18.75;6.97;;;8.50;99.90;;;;;;5046927;28;19920;-71
2021/12/17 09:09:18;;;;;;;15.15;6.90;;;8.50;99.90;;;;;;5029524;28;21102;-70
2021/12/17 09:11:44;;;;;;;17.00;7.43;;;8.60;99.90;;;;;;5029067;28;20215;-70
2021/12/17 09:14:10;;;;;;;17.38;7.05;;;8.60;99.90;;;;;;5046483;28;20041;-71
2021/12/17 09:16:36;;;;;;;17.40;7.90;;;8.60;99.90;;;;;;5046411;28;20056;-70
2021/12/17 09:19:03;;;;;;;16.67;6.57;;;8.60;99.90;;;;;;5044332;28;20180;-71
2021/12/17 09:21:30;;;;;;;18.48;7.57;;;8.60;99.90;;;;;;5034322;28;20045;-71
2021/12/17 09:23:55;;;;;;;16.67;7.05;;;8.60;99.90;;;;;;5046867;28;20029;-71
2021/12/17 09:26:22;;;;;;;15.68;6.00;;;8.60;99.90;;;;;;5047956;28;20609;-70
2021/12/17 09:28:49;;;;;;;16.08;7.60;;;8.60;99.90;;;;;;5044650;28;20444;-70
2021/12/17 09:31:15;;;;;;;17.25;7.55;;;8.70;99.90;;;;;;5039046;28;20405;-71
2021/12/17 09:33:42;;;;;;;19.55;7.22;;;8.70;99.90;;;;;;5045943;28;20567;-70
2021/12/17 09:36:08;;;;;;;15.57;7.05;;;8.70;99.90;;;;;;5047767;28;20071;-71
2021/12/17 09:38:34;;;;;;;17.73;8.23;;;8.70;99.90;;;;;;5046199;28;20067;-71
2021/12/17 09:41:00;;;;;;;16.57;7.27;;;8.70;99.90;;;;;;5033940;28;20405;-71
2021/12/17 09:43:29;;;;;;;18.35;7.28;;;8.70;99.90;;;;;;5029262;28;20029;-71
2021/12/17 09:45:56;;;;;;;18.23;7.07;;;8.70;99.90;;;;;;5045433;28;20085;-71
2021/12/17 09:48:21;;;;;;;;;;;8.70;99.90;;;;;;5047003;28;20037;-70
2021/12/17 09:50:47;;;;;;;17.35;7.38;;;8.80;99.90;;;;;;5030385;28;20419;-71
2021/12/17 09:53:13;;;;;;;18.47;7.93;;;8.80;99.90;;;;;;5029497;28;20045;-71
2021/12/17 09:55:39;;;;;;;17.07;7.63;;;8.80;99.90;;;;;;5046677;28;20094;-71
2021/12/17 09:58:04;;;;;;;20.73;8.85;;;8.80;99.90;;;;;;5046132;28;20041;-70
2021/12/17 10:00:30;;;;;;;19.13;7.07;;;8.80;99.90;;;;;;5041936;28;20032;-71
2021/12/17 10:02:56;;;;;;;18.20;8.07;;;8.90;99.90;;;;;;5045593;28;20954;-71
2021/12/17 10:05:35;;;;;;;15.07;7.63;;;8.90;99.90;;;;;;5043871;28;20039;-71
2021/12/17 10:08:05;;;;;;;19.52;7.15;;;8.90;99.90;;;;;;5026485;28;20048;-71
2021/12/17 10:10:41;;;;;;;16.13;7.63;;;8.90;99.90;;;;;;5043860;28;20624;-71
2021/12/17 10:13:23;;;;;;;17.30;7.93;;;8.90;99.90;;;;;;5033464;28;20076;-70
2021/12/17 10:15:51;;;;;;;16.77;7.07;;;8.90;99.90;;;;;;5045709;28;20123;-70
2021/12/17 10:18:29;;;;;;;14.15;6.65;;;9.00;99.90;;;;;;5044983;28;20086;-70
2021/12/17 10:20:57;;;;;;;13.85;6.95;;;9.00;99.90;;;;;;5028499;28;20053;-71
2021/12/17 10:23:24;;;;;;;15.80;8.35;;;9.00;99.90;;;;;;5037645;28;20436;-70
2021/12/17 10:25:50;;;;;;;14.82;7.32;;;9.00;99.90;;;;;;5035125;28;20073;-71
2021/12/17 10:28:16;;;;;;;17.33;7.97;;;9.10;99.90;;;;;;5046865;28;20067;-70
2021/12/17 10:30:45;;;;;;;17.92;7.68;;;9.10;99.90;;;;;;5044265;28;20420;-71
2021/12/17 10:33:17;;;;;;;13.23;6.72;;;9.10;99.90;;;;;;5028512;28;20052;-71
2021/12/17 10:35:46;;;;;;;15.80;6.60;;;9.10;99.90;;;;;;5044479;28;20094;-70
2021/12/17 10:38:15;;;;;;;18.05;7.18;;;9.10;99.90;;;;;;5025501;28;20413;-70
2021/12/17 10:40:49;;;;;;;15.43;7.60;;;9.10;99.90;;;;;;5046002;28;20269;-71
2021/12/17 10:46:03;;;;;;;13.02;7.47;;;9.20;99.90;;;;;;5044403;28;20067;-71
2021/12/17 10:48:35;;;;;;;18.65;6.90;;;9.20;99.90;;;;;;5021668;28;20453;-71
2021/12/17 10:51:07;;;;;;;15.48;6.85;;;9.20;99.90;;;;;;5046097;28;20029;-71
2021/12/17 10:53:33;;;;;;;12.55;6.38;;;9.20;99.90;;;;;;5029498;28;20509;-71
2021/12/17 10:55:59;;;;;;;15.20;6.90;;;9.20;99.90;;;;;;5045982;28;20029;-70
2021/12/17 10:58:26;;;;;;;15.68;6.78;;;9.20;99.90;;;;;;5030306;28;20106;-71
2021/12/17 11:00:59;;;;;;;;;;;9.20;99.90;;;;;;5043667;28;20041;-71
2021/12/17 11:03:25;;;;;;;13.18;5.60;;;9.20;99.90;;;;;;5031565;28;20412;-70
2021/12/17 11:05:51;;;;;;;16.02;6.03;;;9.20;99.90;;;;;;5025670;28;20044;-70
2021/12/17 11:08:45;;;;;;;13.88;6.45;;;9.30;99.90;;;;;;5029336;28;20270;-71
2021/12/17 11:11:12;;;;;;;15.02;6.38;;;9.30;99.90;;;;;;5038476;28;20055;-70
2021/12/17 11:13:57;;;;;;;12.48;6.60;;;9.30;99.90;;;;;;5045645;28;20039;-70
2021/12/17 11:16:26;;;;;;;13.35;5.20;;;9.40;99.90;;;;;;5039003;28;20036;-70
2021/12/17 11:18:53;;;;;;;10.95;5.15;;;9.30;99.90;;;;;;5044787;28;20052;-70
2021/12/17 11:21:19;;;;;;;11.18;5.35;;;9.40;99.90;;;;;;5036407;28;20490;-71
2021/12/17 11:23:45;;;;;;;;;;;9.40;99.90;;;;;;5044868;28;20035;-71
2021/12/17 11:26:11;;;;;;;10.65;4.50;;;9.40;99.90;;;;;;5026453;28;20019;-71
2021/12/17 11:28:37;;;;;;;11.40;4.57;;;9.40;99.90;;;;;;5045458;28;20036;-71
2021/12/17 11:31:04;;;;;;;9.93;4.93;;;9.40;99.90;;;;;;5041744;28;20127;-70
2021/12/17 11:33:30;;;;;;;7.38;4.20;;;9.40;99.90;;;;;;5043411;28;20155;-71
2021/12/17 11:35:56;;;;;;;;;;;9.40;99.90;;;;;;5046826;28;20033;-71
2021/12/17 11:38:33;;;;;;;8.93;4.30;;;9.40;99.90;;;;;;5046105;28;19921;-70
2021/12/17 11:41:06;;;;;;;;;;;9.50;99.90;;;;;;5046269;28;20465;-70
2021/12/17 11:44:04;;;;;;;10.77;4.45;;;9.40;99.90;;;;;;5030568;28;19986;-71
2021/12/17 11:46:32;;;;;;;10.88;5.05;;;9.40;99.90;;;;;;5037818;28;20041;-70
2021/12/17 11:49:00;;;;;;;8.32;4.63;;;9.50;99.90;;;;;;5028657;28;20044;-71
2021/12/17 11:51:29;;;;;;;11.48;3.92;;;9.50;99.90;;;;;;5028623;28;20045;-71
2021/12/17 11:53:55;;;;;;;8.63;4.50;;;9.50;99.90;;;;;;5044824;28;20048;-70
2021/12/17 11:56:42;;;;;;;10.43;4.75;;;9.50;99.90;;;;;;5006735;28;20405;-71
2021/12/17 11:59:31;;;;;;;11.18;4.95;;;9.50;99.90;;;;;;5022792;28;20053;-71
2021/12/17 12:02:03;;;;;;;9.50;4.90;;;9.50;99.90;;;;;;5040834;28;20048;-70
2021/12/17 12:04:34;;;;;;;9.20;4.80;;;9.50;99.90;;;;;;5037999;28;20502;-70
2021/12/17 12:07:08;;;;;;;9.23;5.13;;;9.50;99.90;;;;;;5028287;28;20071;-71
2021/12/17 12:10:02;;;;;;;10.68;5.72;;;9.50;99.90;;;;;;5027975;28;20048;-71
2021/12/17 12:12:50;;;;;;;6.50;4.13;;;9.50;99.90;;;;;;5024145;28;20044;-71
2021/12/17 12:15:22;;;;;;;7.45;4.38;;;9.50;99.90;;;;;;5021570;28;20064;-70
2021/12/17 12:17:57;;;;;;;6.30;4.22;;;9.50;99.90;;;;;;5006537;28;20647;-71
2021/12/17 12:23:16;;;;;;;7.97;4.10;;;9.50;99.90;;;;;;5044802;28;20493;-70
2021/12/17 12:25:42;;;;;;;8.45;4.07;;;9.50;99.90;;;;;;5049229;28;20041;-70
2021/12/17 12:28:07;;;;;;;6.00;4.25;;;9.50;99.90;;;;;;5034380;28;20045;-71
2021/12/17 12:30:42;;;;;;;6.67;4.47;;;9.50;99.90;;;;;;5029330;28;20041;-70
2021/12/17 12:33:10;;;;;;;8.82;4.82;;;9.50;99.90;;;;;;5044040;28;20490;-70
2021/12/17 12:35:36;;;;;;;6.57;4.20;;;9.50;99.90;;;;;;5030231;28;20119;-71
2021/12/17 12:38:26;;;;;;;9.73;5.20;;;9.50;99.90;;;;;;5047865;28;20120;-71
2021/12/17 12:40:55;;;;;;;9.45;4.47;;;9.50;99.90;;;;;;5045698;28;20402;-70
2021/12/17 12:43:32;;;;;;;8.00;4.15;;;9.50;99.90;;;;;;5046280;28;20472;-71
2021/12/17 12:45:59;;;;;;;7.93;4.63;;;9.60;99.90;;;;;;5008934;28;20063;-70
2021/12/17 12:48:38;;;;;;;;;;;9.50;99.90;;;;;;5048045;28;20049;-71
2021/12/17 12:51:19;;;;;;;8.75;4.28;;;9.60;99.90;;;;;;5043990;28;21414;-70
2021/12/17 12:54:06;;;;;;;8.88;4.72;;;9.50;99.90;;;;;;5047420;28;20047;-70
2021/12/17 12:56:32;;;;;;;6.80;4.03;;;9.50;99.90;;;;;;5022705;28;20045;-71
2021/12/17 12:58:58;;;;;;;6.35;3.72;;;9.50;99.90;;;;;;5030449;28;20198;-70
2021/12/17 13:01:24;;;;;;;6.00;3.50;;;9.50;99.90;;;;;;5028778;28;20433;-70
2021/12/17 13:03:51;;;;;;;6.43;3.72;;;9.60;99.90;;;;;;5023934;28;20550;-71
2021/12/17 13:06:19;;;;;;;6.47;3.65;;;9.50;99.90;;;;;;5030535;28;20032;-71
2021/12/17 13:08:56;;;;;;;7.03;4.90;;;9.50;99.90;;;;;;5045095;28;20048;-71
2021/12/17 13:11:22;;;;;;;10.40;4.55;;;9.60;99.90;;;;;;5050490;28;20041;-71
2021/12/17 13:13:58;;;;;;;;;;;9.60;99.90;;;;;;5030848;28;20045;-71
2021/12/17 13:24:16;;;;;;;6.22;3.60;;;9.60;99.90;;;;;;5028712;28;20071;-70
2021/12/17 13:26:42;;;;;;;5.00;3.25;;;9.60;99.90;;;;;;5045917;28;20072;-71
2021/12/17 13:29:21;;;;;;;6.83;3.90;;;9.60;99.90;;;;;;5054538;28;20288;-71
2021/12/17 13:31:54;;;;;;;7.13;3.90;;;9.60;99.90;;;;;;5029075;28;20053;-71
2021/12/17 13:34:29;;;;;;;8.43;4.30;;;9.60;99.90;;;;;;5040359;28;20124;-71
2021/12/17 13:37:11;;;;;;;6.35;4.07;;;9.60;99.90;;;;;;5053699;28;20091;-71
2021/12/17 13:39:46;;;;;;;6.20;4.13;;;9.60;99.90;;;;;;5030987;28;20136;-70
2021/12/17 13:42:30;;;;;;;6.70;4.32;;;9.60;99.90;;;;;;5024341;28;20040;-71
2021/12/17 13:45:00;;;;;;;7.43;4.18;;;9.60;99.90;;;;;;5047396;28;20032;-70
2021/12/17 13:47:28;;;;;;;6.63;4.07;;;9.60;99.90;;;;;;5047451;28;20489;-71
2021/12/17 13:50:04;;;;;;;7.65;4.63;;;9.60;99.90;;;;;;5024008;28;20056;-71
2021/12/17 13:52:33;;;;;;;8.70;4.97;;;9.60;99.90;;;;;;5048317;28;20055;-70
2021/12/17 13:55:00;;;;;;;10.02;5.97;;;9.60;99.90;;;;;;5047588;28;20405;-71
2021/12/17 13:57:29;;;;;;;8.27;5.15;;;9.60;99.90;;;;;;5031195;28;20029;-71
2021/12/17 14:00:14;;;;;;;9.25;4.90;;;9.60;99.90;;;;;;5047009;28;20055;-71
2021/12/17 14:02:42;;;;;;;6.88;4.07;;;9.60;99.90;;;;;;5044257;28;20583;-70
2021/12/17 14:05:26;;;;;;;5.47;3.78;;;9.60;99.90;;;;;;5029633;28;20033;-70
2021/12/17 14:07:54;;;;;;;6.22;3.50;;;9.60;99.90;;;;;;5045173;28;20044;-71
2021/12/17 14:10:23;;;;;;;5.57;3.40;;;9.60;99.90;;;;;;5044715;28;20047;-70
2021/12/17 14:12:50;;;;;;;5.30;3.30;;;9.60;99.90;;;;;;5016710;28;20215;-70
2021/12/17 14:15:22;;;;;;;4.70;2.88;;;9.60;99.90;;;;;;5044462;28;20864;-71
2021/12/17 14:17:57;;;;;;;5.40;3.42;;;9.60;99.90;;;;;;5043800;28;20172;-70
2021/12/17 14:20:25;;;;;;;4.25;2.90;;;9.60;99.90;;;;;;5048568;28;20043;-71
2021/12/17 14:22:55;;;;;;;6.60;3.47;;;9.60;99.90;;;;;;5045121;28;20037;-70
2021/12/17 14:25:35;;;;;;;5.18;3.03;;;9.60;99.90;;;;;;5008823;28;20056;-70
2021/12/17 14:28:07;;;;;;;6.78;3.15;;;9.60;99.90;;;;;;5036480;28;20619;-70
2021/12/17 14:30:33;;;;;;;5.75;3.78;;;9.60;99.90;;;;;;5029772;28;20037;-70
2021/12/17 14:33:10;;;;;;;6.65;3.60;;;9.60;99.90;;;;;;5030360;28;20146;-71
2021/12/17 14:35:54;;;;;;;4.35;2.70;;;9.60;99.90;;;;;;5046955;28;20115;-70
2021/12/17 14:38:32;;;;;;;7.53;3.42;;;9.60;99.90;;;;;;5033285;28;20579;-70
2021/12/17 14:41:00;;;;;;;7.03;3.20;;;9.60;99.90;;;;;;5024564;28;20185;-70
2021/12/17 14:43:35;;;;;;;7.05;3.65;;;9.60;99.90;;;;;;5048101;28;20037;-71
2021/12/17 14:46:21;;;;;;;7.95;3.83;;;9.60;99.90;;;;;;5044862;28;20048;-71
2021/12/17 14:49:09;;;;;;;6.75;4.03;;;9.60;99.90;;;;;;5045874;28;20067;-70
2021/12/17 14:57:58;;;;;;;6.07;3.80;;;9.60;99.90;;;;;;5036924;28;20048;-71
2021/12/17 15:05:30;;;;;;;10.65;4.60;;;9.60;99.90;;;;;;5032354;28;20045;-90
2021/12/17 15:07:58;;;;;;;6.53;4.00;;;9.50;99.90;;;;;;5007383;23;20032;-70
2021/12/17 15:10:25;;;;;;;6.80;4.15;;;9.50;99.90;;;;;;5042297;28;20075;-70
2021/12/17 15:12:56;;;;;;;8.77;3.78;;;9.50;99.90;;;;;;5061080;28;20550;-70
2021/12/17 15:15:25;;;;;;;6.43;3.88;;;9.50;99.90;;;;;;5010803;28;20037;-68
2021/12/17 15:17:52;;;;;;;7.55;4.32;;;9.50;99.90;;;;;;5042921;28;20033;-68
2021/12/17 15:20:25;;;;;;;9.10;4.53;;;9.50;99.90;;;;;;5025334;28;20444;-68
2021/12/17 15:22:52;;;;;;;7.28;4.68;;;9.50;99.90;;;;;;5006966;28;20076;-67
2021/12/17 15:25:19;;;;;;;8.00;4.38;;;9.50;99.90;;;;;;5038797;28;20063;-67
2021/12/17 15:27:45;;;;;;;;;;;9.50;99.90;;;;;;5009836;28;20465;-68
2021/12/17 15:30:13;;;;;;;9.93;4.75;;;9.50;99.90;;;;;;5039222;28;19960;-68
2021/12/17 15:32:40;;;;;;;9.35;4.28;;;9.40;99.90;;;;;;5003883;28;20046;-71
2021/12/17 15:35:06;;;;;;;8.18;4.70;;;9.50;99.90;;;;;;5022850;28;20060;-72
2021/12/17 15:37:32;;;;;;;7.38;4.57;;;9.50;99.90;;;;;;5017590;28;20033;-70
2021/12/17 15:39:57;;;;;;;9.83;4.37;;;9.40;99.90;;;;;;5017670;28;20041;-73
2021/12/17 15:42:23;;;;;;;8.40;4.33;;;9.50;99.90;;;;;;5020071;28;20244;-67
2021/12/17 15:44:48;;;;;;;7.67;4.93;;;9.40;99.90;;;;;;5020331;28;20128;-68
2021/12/17 15:47:14;;;;;;;7.13;4.80;;;9.40;99.90;;;;;;5035890;28;20085;-67
2021/12/17 15:49:40;;;;;;;8.17;4.90;;;9.40;99.90;;;;;;5024247;28;20041;-67
2021/12/17 15:52:07;;;;;;;9.43;4.32;;;9.40;99.90;;;;;;5040312;28;20449;-67
2021/12/17 15:54:37;;;;;;;7.32;4.45;;;9.40;99.90;;;;;;5024438;28;20508;-67
2021/12/17 15:57:04;;;;;;;11.60;5.25;;;9.40;99.90;;;;;;5043610;28;20029;-67
2021/12/17 15:59:30;;;;;;;7.90;5.20;;;9.40;99.90;;;;;;5023041;28;20025;-67
2021/12/17 16:01:57;;;;;;;8.38;5.07;;;9.40;99.90;;;;;;5025775;28;20576;-67
2021/12/17 16:04:22;;;;;;;;;;;9.40;99.90;;;;;;5028020;28;20044;-67
2021/12/17 16:06:48;;;;;;;8.43;5.47;;;9.40;99.90;;;;;;5044668;28;19951;-67
2021/12/17 16:09:54;;;;;;;11.73;5.63;;;9.40;99.90;;;;;;5043494;28;20091;-67
2021/12/17 16:17:59;;;;;;;12.85;6.13;;;9.40;99.90;;;;;;5024696;28;20052;-68
2021/12/17 16:23:01;;;;;;;13.05;7.00;;;9.40;99.90;;;;;;4953874;28;20431;-68